Time;durP1;ratioP1;P1;durP2;ratioP2;P2;SDS_P1;SDS_P2;PMS_P1;PMS_P2;Temp;Humidity;BMP_temperature;BMP_pressure;BME280_temperature;BME280_humidity;BME280_pressure;Samples;Min_cycle;Max_cycle;Signal;HPM_P1;HPM_P2
2022/03/14 00:00:36;;;;;;;9.43;4.63;;;;;;;5.29;51.85;101008.44;5232206;28;20493;-77
2022/03/14 00:03:06;;;;;;;11.50;4.57;;;;;;;5.39;51.50;101013.53;5234214;28;20044;-78
2022/03/14 00:05:37;;;;;;;8.77;4.38;;;;;;;5.54;50.39;101016.03;5232168;28;20170;-78
2022/03/14 00:08:07;;;;;;;9.30;4.18;;;;;;;5.57;50.83;101013.41;5231556;28;20032;-78
2022/03/14 00:10:38;;;;;;;10.25;4.65;;;;;;;5.54;50.62;101019.47;5232952;28;20028;-78
2022/03/14 00:13:09;;;;;;;8.05;4.10;;;;;;;5.43;51.38;101026.44;5229572;28;20028;-79
2022/03/14 00:15:40;;;;;;;8.27;4.28;;;;;;;5.24;52.54;101031.78;5231478;28;20029;-78
2022/03/14 00:18:12;;;;;;;9.32;4.32;;;;;;;4.99;53.91;101040.56;5231608;28;20095;-78
2022/03/14 00:20:42;;;;;;;7.38;4.40;;;;;;;4.69;54.46;101043.34;5232383;28;20033;-78
2022/03/14 00:23:12;;;;;;;10.65;4.88;;;;;;;4.41;55.76;101051.19;5232734;28;20036;-78
2022/03/14 00:25:43;;;;;;;10.55;5.05;;;;;;;4.07;57.15;101055.59;5232793;28;20025;-78
2022/03/14 00:28:13;;;;;;;9.95;4.80;;;;;;;3.89;58.26;101054.75;5232659;28;20032;-78
2022/03/14 00:30:44;;;;;;;8.90;4.78;;;;;;;3.55;59.26;101053.03;5231215;28;20033;-79
2022/03/14 00:33:14;;;;;;;7.47;4.38;;;;;;;3.38;59.10;101062.50;5232207;28;20032;-78
2022/03/14 00:35:44;;;;;;;9.02;4.43;;;;;;;3.40;59.50;101058.19;5231379;28;20029;-78
2022/03/14 00:38:15;;;;;;;9.45;4.80;;;;;;;3.17;59.50;101064.22;5230990;28;20223;-77
2022/03/14 00:40:46;;;;;;;10.98;4.57;;;;;;;2.97;61.15;101060.72;5230239;28;20033;-78
2022/03/14 00:43:17;;;;;;;11.23;4.50;;;;;;;2.66;62.39;101069.22;5226694;28;20024;-78
2022/03/14 00:45:47;;;;;;;12.63;4.75;;;;;;;2.49;63.25;101063.97;5228770;28;20035;-79
2022/03/14 00:48:17;;;;;;;8.38;4.50;;;;;;;2.32;63.26;101069.94;5230141;28;20116;-78
2022/03/14 00:50:49;;;;;;;9.63;4.80;;;;;;;2.34;63.16;101065.63;5233013;28;20050;-79
2022/03/14 00:53:19;;;;;;;9.38;4.80;;;;;;;2.28;63.53;101070.75;5231946;28;20020;-78
2022/03/14 00:55:50;;;;;;;11.00;4.90;;;;;;;2.18;63.41;101071.56;5230158;28;20479;-78
2022/03/14 00:58:20;;;;;;;9.80;4.78;;;;;;;2.24;63.84;101069.00;5230013;28;20096;-80
2022/03/14 01:00:50;;;;;;;9.57;4.55;;;;;;;2.06;63.63;101066.31;5233182;28;20016;-78
2022/03/14 01:03:21;;;;;;;10.23;4.90;;;;;;;2.11;63.56;101070.66;5233098;28;20107;-77
2022/03/14 01:05:51;;;;;;;11.80;5.00;;;;;;;2.06;64.06;101074.06;5230486;28;20025;-77
2022/03/14 01:08:21;;;;;;;8.57;4.60;;;;;;;2.10;63.57;101071.50;5231596;28;20025;-77
2022/03/14 01:10:52;;;;;;;11.57;5.25;;;;;;;2.02;64.40;101067.16;5229305;28;20586;-79
2022/03/14 01:13:22;;;;;;;11.82;4.90;;;;;;;2.01;64.44;101073.16;5236616;28;20107;-78
2022/03/14 01:15:52;;;;;;;9.40;4.55;;;;;;;2.16;63.97;101065.53;5228258;28;20008;-77
2022/03/14 01:18:23;;;;;;;11.20;5.32;;;;;;;2.10;63.68;101071.50;5224061;28;20508;-77
2022/03/14 01:20:53;;;;;;;10.90;5.50;;;;;;;2.19;63.82;101071.56;5232642;28;20024;-78
2022/03/14 01:23:23;;;;;;;10.38;4.90;;;;;;;2.15;64.21;101071.56;5233519;28;20059;-78
2022/03/14 01:25:54;;;;;;;10.05;5.00;;;;;;;2.11;63.12;101075.81;5230091;28;20023;-79
2022/03/14 01:28:24;;;;;;;9.65;4.88;;;;;;;2.09;63.13;101079.22;5238817;28;20111;-78
2022/03/14 01:30:54;;;;;;;9.10;4.70;;;;;;;2.09;63.01;101069.78;5243127;28;20099;-78
2022/03/14 01:33:25;;;;;;;10.82;4.95;;;;;;;2.23;62.22;101078.47;5236704;28;20433;-78
2022/03/14 01:35:55;;;;;;;8.45;4.35;;;;;;;2.33;61.87;101080.22;5240509;28;20470;-78
2022/03/14 01:38:25;;;;;;;9.48;4.32;;;;;;;2.39;61.73;101082.88;5237637;28;20422;-78
2022/03/14 01:40:56;;;;;;;9.85;4.78;;;;;;;2.45;61.24;101080.31;5236089;28;20028;-77
2022/03/14 01:43:26;;;;;;;9.70;4.68;;;;;;;2.55;60.90;101076.06;5232438;28;20039;-78
2022/03/14 01:45:57;;;;;;;9.80;4.63;;;;;;;2.65;60.45;101073.50;5235147;28;20028;-78
2022/03/14 01:48:27;;;;;;;9.70;4.63;;;;;;;2.77;59.69;101088.19;5240376;28;20119;-78
2022/03/14 01:50:58;;;;;;;10.80;4.80;;;;;;;2.76;59.81;101082.16;5236562;28;20559;-78
2022/03/14 01:53:30;;;;;;;8.45;4.35;;;;;;;2.77;59.28;101078.72;5233951;28;20518;-77
2022/03/14 01:56:00;;;;;;;10.05;4.47;;;;;;;2.86;59.90;101088.22;5239954;28;20650;-78
2022/03/14 01:58:31;;;;;;;8.55;4.60;;;;;;;2.77;59.91;101088.19;5236428;28;20120;-77
2022/03/14 02:01:01;;;;;;;9.00;4.72;;;;;;;2.60;60.15;101097.56;5239860;28;20103;-78
2022/03/14 02:03:31;;;;;;;9.68;4.97;;;;;;;2.72;60.67;101092.47;5236868;28;20025;-79
2022/03/14 02:06:02;;;;;;;9.45;4.53;;;;;;;2.74;60.94;101098.50;5239052;28;20035;-78
2022/03/14 02:08:34;;;;;;;9.82;5.25;;;;;;;2.52;60.99;101094.94;5237404;28;20368;-77
2022/03/14 02:11:04;;;;;;;9.52;4.80;;;;;;;2.56;61.07;101088.09;5236304;28;20031;-77
2022/03/14 02:13:35;;;;;;;13.80;4.95;;;;;;;2.51;61.13;101092.38;5232881;28;20024;-77
2022/03/14 02:16:05;;;;;;;9.63;4.72;;;;;;;2.61;60.83;101094.13;5239235;28;20119;-78
2022/03/14 02:18:35;;;;;;;10.32;4.78;;;;;;;2.52;61.10;101088.94;5240240;28;20538;-78
2022/03/14 02:21:12;;;;;;;9.23;4.65;;;;;;;2.47;61.39;101090.66;5236941;28;20052;-79
2022/03/14 02:23:44;;;;;;;11.40;4.85;;;;;;;2.41;61.72;101088.00;5238228;28;20029;-78
2022/03/14 02:26:14;;;;;;;12.10;5.43;;;;;;;2.36;61.41;101097.44;5235889;28;20036;-78
2022/03/14 02:28:44;;;;;;;9.98;5.28;;;;;;;2.40;61.34;101096.59;5236705;28;20482;-79
2022/03/14 02:31:14;;;;;;;9.75;5.07;;;;;;;2.28;61.73;101099.09;5237751;28;20028;-78
2022/03/14 02:33:45;;;;;;;8.13;4.50;;;;;;;2.30;61.36;101089.69;5236496;28;20025;-79
2022/03/14 02:36:15;;;;;;;9.05;4.75;;;;;;;2.35;61.77;101091.41;5237540;28;20506;-78
2022/03/14 02:38:45;;;;;;;10.73;5.30;;;;;;;2.24;61.67;101084.47;5265731;22;20044;-76
2022/03/14 02:41:16;;;;;;;9.57;4.72;;;;;;;2.25;62.42;101086.19;5292358;27;20517;-76
2022/03/14 02:43:46;;;;;;;11.68;4.90;;;;;;;2.21;62.91;101095.66;5300553;27;20031;-76
2022/03/14 02:46:16;;;;;;;11.30;5.15;;;;;;;2.06;63.43;101100.72;5297543;27;20027;-76
2022/03/14 02:48:47;;;;;;;10.82;5.13;;;;;;;1.85;64.37;101092.78;5291670;27;20107;-76
2022/03/14 02:51:17;;;;;;;12.85;5.40;;;;;;;1.71;65.13;101096.13;5286519;28;20031;-76
2022/03/14 02:53:47;;;;;;;10.93;5.18;;;;;;;1.76;65.05;101101.31;5284324;28;20027;-76
2022/03/14 02:56:20;;;;;;;10.05;4.90;;;;;;;1.76;64.55;101107.31;5286302;28;20058;-76
2022/03/14 02:58:51;;;;;;;10.77;4.93;;;;;;;1.86;64.60;101114.28;5286445;28;20019;-75
2022/03/14 03:01:22;;;;;;;12.23;4.90;;;;;;;1.69;64.70;101110.72;5286281;28;20034;-76
2022/03/14 03:03:52;;;;;;;9.43;4.82;;;;;;;1.53;65.09;101110.53;5286280;28;20023;-76
2022/03/14 03:06:23;;;;;;;10.80;5.00;;;;;;;1.55;65.06;101114.88;5285325;28;20388;-76
2022/03/14 03:08:54;;;;;;;10.27;5.18;;;;;;;1.51;64.42;101113.13;5282808;28;20423;-76
2022/03/14 03:11:24;;;;;;;9.38;4.50;;;;;;;1.77;63.52;101115.94;5276556;28;20043;-76
2022/03/14 03:13:56;;;;;;;11.35;5.38;;;;;;;1.96;62.71;101118.69;5282813;28;20019;-76
2022/03/14 03:16:26;;;;;;;9.52;4.90;;;;;;;1.95;63.36;101120.38;5285410;28;20119;-76
2022/03/14 03:18:57;;;;;;;13.18;5.38;;;;;;;1.85;62.70;101120.28;5285928;28;20094;-75
2022/03/14 03:21:28;;;;;;;12.18;5.18;;;;;;;1.92;62.79;101122.06;5267571;28;20058;-76
2022/03/14 03:23:58;;;;;;;8.80;5.10;;;;;;;1.74;62.95;101124.47;5277490;28;20115;-76
2022/03/14 03:26:28;;;;;;;9.23;5.15;;;;;;;1.84;63.77;101123.72;5285567;28;20500;-76
2022/03/14 03:28:58;;;;;;;10.20;4.95;;;;;;;1.70;63.35;101130.47;5285136;28;20761;-76
2022/03/14 03:31:29;;;;;;;10.48;4.90;;;;;;;1.69;63.68;101133.91;5285335;28;20156;-76
2022/03/14 03:33:59;;;;;;;11.90;5.20;;;;;;;1.68;64.17;101136.44;5284962;28;20051;-76
2022/03/14 03:36:30;;;;;;;11.10;5.00;;;;;;;1.65;64.95;101141.56;5285598;28;20077;-76
2022/03/14 03:39:00;;;;;;;11.02;5.10;;;;;;;1.54;65.51;101138.91;5281358;28;20023;-76
2022/03/14 03:41:31;;;;;;;9.55;5.13;;;;;;;1.39;66.03;101148.19;5276308;28;20123;-76
2022/03/14 03:44:02;;;;;;;10.77;5.10;;;;;;;1.31;66.61;101148.13;5282186;28;20032;-76
2022/03/14 03:46:32;;;;;;;11.63;5.20;;;;;;;1.42;66.44;101156.78;5285647;28;20035;-76
2022/03/14 03:49:03;;;;;;;12.25;5.35;;;;;;;1.38;66.53;101152.47;5285612;28;20031;-76
2022/03/14 03:51:33;;;;;;;12.27;5.47;;;;;;;1.34;66.80;101160.13;5284450;28;20027;-76
2022/03/14 03:54:03;;;;;;;11.20;4.85;;;;;;;1.22;66.97;101160.03;5283526;28;20016;-75
2022/03/14 03:56:34;;;;;;;12.32;5.68;;;;;;;1.22;67.24;101172.91;5285271;28;20066;-76
2022/03/14 03:59:05;;;;;;;10.13;5.15;;;;;;;1.25;67.08;101176.34;5285405;28;20388;-76
2022/03/14 04:01:35;;;;;;;12.25;5.30;;;;;;;1.20;66.76;101172.03;5285338;28;20393;-76
2022/03/14 04:04:05;;;;;;;10.50;5.13;;;;;;;1.19;67.53;101181.44;5285207;28;20031;-76
2022/03/14 04:06:36;;;;;;;12.82;5.40;;;;;;;1.13;67.45;101171.09;5284624;28;20521;-76
2022/03/14 04:09:07;;;;;;;12.88;5.53;;;;;;;1.11;67.34;101172.78;5281064;28;20084;-76
2022/03/14 04:11:41;;;;;;;10.57;5.28;;;;;;;1.08;67.09;101182.16;5275805;28;20794;-76
2022/03/14 04:14:13;;;;;;;11.50;5.40;;;;;;;1.04;67.79;101180.41;5281806;28;20151;-76
2022/03/14 04:16:43;;;;;;;11.00;5.40;;;;;;;0.98;66.91;101165.75;5284971;28;20296;-76
2022/03/14 04:19:16;;;;;;;11.88;5.13;;;;;;;1.05;66.98;101166.69;5284840;28;20781;-76
2022/03/14 04:21:52;;;;;;;16.77;5.30;;;;;;;1.10;67.00;101160.72;5284600;28;20111;-76
2022/03/14 04:24:22;;;;;;;11.38;5.22;;;;;;;1.04;67.12;101163.25;5284801;28;20036;-76
2022/03/14 04:26:52;;;;;;;10.65;5.10;;;;;;;1.02;67.17;101167.50;5284169;28;20035;-76
2022/03/14 04:29:23;;;;;;;13.27;5.55;;;;;;;1.25;66.62;101170.34;5283981;28;20044;-76
2022/03/14 04:31:53;;;;;;;11.05;5.13;;;;;;;1.04;67.32;101175.25;5284695;28;20110;-76
2022/03/14 04:34:23;;;;;;;9.40;5.03;;;;;;;0.97;67.63;101179.47;5284130;28;20076;-76
2022/03/14 04:36:54;;;;;;;11.52;5.90;;;;;;;0.73;68.44;101176.56;5284156;28;20050;-76
2022/03/14 04:39:25;;;;;;;14.40;5.47;;;;;;;0.92;67.83;101170.78;5279056;28;20032;-76
2022/03/14 04:41:55;;;;;;;12.35;5.78;;;;;;;0.94;67.84;101171.72;5275950;28;20489;-76
2022/03/14 04:44:25;;;;;;;11.77;5.60;;;;;;;0.91;68.32;101174.22;5281709;28;20035;-76
2022/03/14 04:46:55;;;;;;;11.27;5.50;;;;;;;0.89;68.17;101175.91;5284209;28;20039;-76
2022/03/14 04:49:27;;;;;;;14.85;5.53;;;;;;;0.70;68.14;101173.09;5284205;28;20480;-76
2022/03/14 04:51:57;;;;;;;14.35;5.97;;;;;;;0.72;69.29;101173.97;5281862;28;20027;-76
2022/03/14 04:54:27;;;;;;;11.68;5.45;;;;;;;0.91;68.45;101175.94;5283989;28;20144;-76
2022/03/14 04:56:57;;;;;;;10.55;5.40;;;;;;;0.61;69.17;101175.53;5278647;28;20438;-76
2022/03/14 04:59:28;;;;;;;12.82;5.75;;;;;;;0.67;69.06;101175.59;5264567;28;20027;-76
2022/03/14 05:01:58;;;;;;;13.02;5.30;;;;;;;0.65;69.37;101179.88;5276656;28;20031;-76
2022/03/14 05:04:28;;;;;;;12.88;5.75;;;;;;;0.68;69.36;101178.22;5277700;28;20028;-76
2022/03/14 05:06:59;;;;;;;13.23;5.30;;;;;;;0.81;68.98;101186.94;5274411;28;20102;-76
2022/03/14 05:09:29;;;;;;;11.65;4.97;;;;;;;0.95;68.54;101188.00;5276481;28;20031;-76
2022/03/14 05:11:59;;;;;;;11.95;5.85;;;;;;;0.83;68.93;101191.28;5275306;28;20106;-76
2022/03/14 05:14:30;;;;;;;11.75;5.80;;;;;;;0.73;69.22;101191.13;5281329;28;20049;-76
2022/03/14 05:17:00;;;;;;;11.15;6.00;;;;;;;0.69;69.95;101199.66;5283512;28;20031;-75
2022/03/14 05:19:30;;;;;;;14.98;5.88;;;;;;;0.69;69.71;101197.94;5283774;28;20059;-75
2022/03/14 05:22:01;;;;;;;11.98;5.15;;;;;;;0.92;69.25;101196.53;5278432;28;20024;-75
2022/03/14 05:24:31;;;;;;;13.73;5.88;;;;;;;0.91;69.31;101194.78;5283465;28;20066;-75
2022/03/14 05:27:02;;;;;;;13.00;5.97;;;;;;;0.67;70.38;101201.31;5283802;28;20027;-75
2022/03/14 05:29:32;;;;;;;10.60;5.35;;;;;;;0.72;69.94;101197.13;5283484;28;20060;-75
2022/03/14 05:32:03;;;;;;;12.18;5.60;;;;;;;0.64;71.00;101209.88;5283624;28;20023;-75
2022/03/14 05:34:34;;;;;;;14.38;5.80;;;;;;;0.50;71.87;101213.94;5279684;28;20066;-75
2022/03/14 05:37:05;;;;;;;11.73;5.45;;;;;;;0.35;72.70;101208.56;5272930;28;20027;-75
2022/03/14 05:39:35;;;;;;;11.18;5.55;;;;;;;0.40;72.51;101213.78;5277431;28;20042;-75
2022/03/14 05:42:06;;;;;;;12.65;5.45;;;;;;;0.56;72.84;101218.31;5274946;28;20034;-75
2022/03/14 05:44:36;;;;;;;12.75;5.55;;;;;;;0.56;72.51;101229.44;5280998;28;20115;-75
2022/03/14 05:47:06;;;;;;;11.70;5.63;;;;;;;0.52;72.62;101230.25;5283333;28;20504;-75
2022/03/14 05:49:36;;;;;;;11.95;5.55;;;;;;;0.61;72.45;101230.41;5268630;28;20070;-75
2022/03/14 05:52:07;;;;;;;13.60;5.53;;;;;;;0.69;72.21;101236.50;5275223;28;20024;-75
2022/03/14 05:54:38;;;;;;;12.10;5.28;;;;;;;0.87;70.46;101234.19;5281797;28;20421;-76
2022/03/14 05:57:08;;;;;;;12.13;5.43;;;;;;;1.01;69.37;101235.25;5266305;28;20027;-75
2022/03/14 05:59:38;;;;;;;10.98;5.50;;;;;;;1.16;68.87;101232.00;5269938;28;20031;-76
2022/03/14 06:02:10;;;;;;;11.98;5.75;;;;;;;1.33;68.14;101238.22;5276417;28;20028;-75
2022/03/14 06:04:41;;;;;;;10.55;5.00;;;;;;;1.61;67.38;101254.00;5266229;28;20032;-75
2022/03/14 06:07:11;;;;;;;16.92;5.80;;;;;;;1.79;66.94;101244.75;5265071;28;20028;-76
2022/03/14 06:09:42;;;;;;;13.27;5.50;;;;;;;1.91;66.95;101238.88;5267203;28;20028;-76
2022/03/14 06:12:25;;;;;;;13.35;5.65;;;;;;;1.74;66.62;101244.72;5266005;28;20062;-75
2022/03/14 06:15:00;;;;;;;10.77;5.18;;;;;;;1.86;67.04;101246.53;5271443;28;20028;-75
2022/03/14 06:17:31;;;;;;;13.63;5.85;;;;;;;1.75;68.03;101247.28;5269667;28;20024;-76
2022/03/14 06:20:01;;;;;;;14.18;5.78;;;;;;;1.76;67.93;101243.84;5268600;28;20499;-76
2022/03/14 06:22:36;;;;;;;9.98;5.38;;;;;;;1.75;67.96;101256.75;5266244;28;20035;-76
2022/03/14 06:25:08;;;;;;;12.18;5.15;;;;;;;1.60;68.41;101260.00;5267045;28;20028;-76
2022/03/14 06:27:38;;;;;;;10.70;5.68;;;;;;;1.63;68.54;101256.59;5274666;28;20028;-76
2022/03/14 06:30:09;;;;;;;13.55;5.78;;;;;;;1.78;68.58;101261.06;5273498;28;20542;-76
2022/03/14 06:32:42;;;;;;;12.02;5.80;;;;;;;1.69;69.81;101272.09;5273510;28;20024;-76
2022/03/14 06:35:14;;;;;;;12.55;5.75;;;;;;;1.93;69.65;101278.38;5277212;28;20023;-77
2022/03/14 06:37:45;;;;;;;14.52;5.95;;;;;;;2.02;68.78;101276.78;5282298;28;20110;-76
2022/03/14 06:40:15;;;;;;;15.50;5.82;;;;;;;2.03;68.79;101275.06;5274438;28;20359;-76
2022/03/14 06:42:49;;;;;;;11.55;5.43;;;;;;;2.32;68.54;101274.47;5277195;28;20381;-76
2022/03/14 06:45:22;;;;;;;12.18;5.97;;;;;;;2.47;67.51;101278.94;5279813;28;20099;-77
2022/03/14 06:47:54;;;;;;;16.73;6.20;;;;;;;2.56;66.37;101281.56;5274727;28;20076;-76
2022/03/14 06:50:24;;;;;;;12.02;5.60;;;;;;;2.77;66.73;101289.44;5272918;28;20035;-77
2022/03/14 06:52:54;;;;;;;14.32;5.20;;;;;;;2.80;65.73;101289.47;5256335;28;20522;-76
2022/03/14 06:55:26;;;;;;;12.35;5.93;;;;;;;2.88;66.32;101295.56;5262782;28;20466;-76
2022/03/14 06:57:56;;;;;;;12.57;5.78;;;;;;;3.00;66.10;101293.91;5276549;28;20031;-77
2022/03/14 07:00:27;;;;;;;10.93;5.35;;;;;;;3.09;65.67;101293.09;5277938;28;20054;-77
2022/03/14 07:02:58;;;;;;;13.20;6.03;;;;;;;3.20;66.36;101304.38;5265063;28;20035;-77
2022/03/14 07:05:28;;;;;;;15.85;6.32;;;;;;;3.17;66.07;101302.63;5263060;28;20032;-77
2022/03/14 07:07:58;;;;;;;11.90;6.00;;;;;;;3.26;65.85;101306.97;5278913;28;20031;-77
2022/03/14 07:10:30;;;;;;;13.27;6.38;;;;;;;3.54;66.08;101301.09;5276750;28;20059;-77
2022/03/14 07:13:00;;;;;;;13.00;5.80;;;;;;;3.62;64.61;101308.88;5281870;28;20137;-76
2022/03/14 07:15:32;;;;;;;11.88;5.57;;;;;;;3.69;64.27;101315.81;5282753;28;20103;-77
2022/03/14 07:18:02;;;;;;;13.57;6.22;;;;;;;3.71;65.17;101316.69;5286344;28;20027;-76
2022/03/14 07:20:33;;;;;;;11.65;5.45;;;;;;;3.83;65.39;101326.19;5286572;28;20042;-77
2022/03/14 07:23:03;;;;;;;11.73;5.80;;;;;;;3.81;65.92;101322.75;5280584;28;20039;-77
2022/03/14 07:25:37;;;;;;;11.45;6.15;;;;;;;3.91;64.69;101324.47;5285770;28;20032;-77
2022/03/14 07:28:09;;;;;;;10.35;5.78;;;;;;;4.00;64.27;101325.41;5279282;28;20046;-77
2022/03/14 07:30:40;;;;;;;14.48;5.80;;;;;;;4.05;65.10;101328.84;5254825;28;20119;-77
2022/03/14 07:33:10;;;;;;;13.27;6.43;;;;;;;4.28;64.01;101337.50;5281163;28;20126;-77
2022/03/14 07:35:40;;;;;;;11.50;6.15;;;;;;;4.93;63.27;101333.25;5286243;28;20027;-77
2022/03/14 07:38:11;;;;;;;12.57;5.30;;;;;;;5.53;60.27;101339.16;5284177;28;20032;-77
2022/03/14 07:40:42;;;;;;;12.25;5.57;;;;;;;5.87;59.35;101350.31;5277099;28;20018;-77
2022/03/14 07:43:12;;;;;;;12.02;5.97;;;;;;;5.91;58.17;101349.44;5281698;28;20028;-77
2022/03/14 07:45:42;;;;;;;13.13;5.78;;;;;;;6.04;57.73;101358.88;5286196;28;20031;-77
2022/03/14 07:48:13;;;;;;;11.88;6.30;;;;;;;6.20;58.53;101356.22;5271821;28;20107;-77
2022/03/14 07:50:43;;;;;;;13.02;6.03;;;;;;;6.74;58.28;101349.81;5274146;28;20039;-77
2022/03/14 07:53:13;;;;;;;12.93;6.22;;;;;;;6.80;57.29;101355.78;5272260;28;20035;-77
2022/03/14 07:55:44;;;;;;;13.80;6.13;;;;;;;6.84;57.03;101360.09;5283887;28;20031;-77
2022/03/14 07:58:14;;;;;;;12.05;6.43;;;;;;;6.79;57.10;101353.22;5285339;28;20500;-77
2022/03/14 08:00:44;;;;;;;11.40;6.20;;;;;;;6.91;57.62;101358.31;5285012;28;20035;-77
2022/03/14 08:03:20;;;;;;;11.75;5.88;;;;;;;7.19;57.19;101354.59;5278131;28;20066;-77
2022/03/14 08:05:55;;;;;;;;;;;;;;;7.38;57.23;101354.41;5280895;28;20053;-77
2022/03/14 08:08:26;;;;;;;10.57;6.05;;;;;;;7.50;57.19;101355.13;5285488;28;19919;-77
2022/03/14 08:11:01;;;;;;;13.05;6.43;;;;;;;7.37;56.69;101350.06;5276109;28;20054;-77
2022/03/14 08:13:32;;;;;;;13.97;6.47;;;;;;;7.41;56.78;101355.22;5266377;28;20046;-77
2022/03/14 08:16:02;;;;;;;14.32;6.60;;;;;;;7.34;55.85;101355.31;5266555;28;20024;-77
2022/03/14 08:18:32;;;;;;;12.45;6.50;;;;;;;7.61;55.66;101355.88;5267840;28;20027;-77
2022/03/14 08:21:03;;;;;;;11.52;6.47;;;;;;;7.94;55.31;101352.00;5271774;28;20641;-77
2022/03/14 08:23:35;;;;;;;12.40;6.18;;;;;;;8.58;54.15;101345.91;5270037;28;20032;-77
2022/03/14 08:26:06;;;;;;;11.50;5.95;;;;;;;9.28;53.44;101341.28;5284561;28;20107;-77
2022/03/14 08:28:36;;;;;;;10.90;6.03;;;;;;;9.28;52.48;101343.88;5284685;28;20545;-77
2022/03/14 08:31:06;;;;;;;15.90;6.78;;;;;;;10.19;51.43;101349.88;5285112;28;20031;-78
2022/03/14 08:33:41;;;;;;;13.13;6.25;;;;;;;10.21;50.81;101350.72;5276516;28;20071;-77
2022/03/14 08:36:11;;;;;;;11.90;6.15;;;;;;;11.25;51.46;101343.81;5283971;28;20385;-78
2022/03/14 08:38:42;;;;;;;8.90;5.40;;;;;;;11.69;50.38;101348.75;5282100;28;20023;-78
2022/03/14 08:41:15;;;;;;;11.77;6.33;;;;;;;11.72;48.73;101353.88;5277448;28;20456;-78
2022/03/14 08:43:46;;;;;;;10.68;5.85;;;;;;;10.42;51.36;101359.81;5282167;28;20269;-78
2022/03/14 08:46:16;;;;;;;10.70;6.45;;;;;;;11.77;49.65;101355.47;5285503;28;20039;-78
2022/03/14 08:48:47;;;;;;;11.40;5.68;;;;;;;10.67;50.23;101361.00;5285047;28;20045;-78
2022/03/14 08:51:17;;;;;;;13.10;6.17;;;;;;;10.82;50.06;101365.88;5283220;28;20115;-78
2022/03/14 08:53:47;;;;;;;13.95;6.25;;;;;;;11.41;51.04;101359.06;5278690;28;20588;-78
2022/03/14 08:56:18;;;;;;;10.48;5.85;;;;;;;10.58;51.06;101359.44;5283541;28;20481;-78
2022/03/14 08:58:48;;;;;;;11.23;5.95;;;;;;;9.99;52.37;101369.44;5284208;28;20039;-78
2022/03/14 09:01:18;;;;;;;10.27;6.10;;;;;;;10.04;53.21;101365.00;5283699;28;20506;-78
2022/03/14 09:03:49;;;;;;;12.45;6.45;;;;;;;9.52;54.01;101366.91;5283634;28;20051;-78
2022/03/14 09:06:19;;;;;;;12.32;6.75;;;;;;;9.74;53.97;101361.25;5278324;28;20100;-78
2022/03/14 09:08:50;;;;;;;12.32;6.50;;;;;;;9.81;53.48;101368.06;5277991;28;20035;-78
2022/03/14 09:11:20;;;;;;;14.05;7.20;;;;;;;9.61;54.85;101371.94;5275766;28;20024;-78
2022/03/14 09:13:50;;;;;;;12.75;7.00;;;;;;;9.90;54.43;101367.00;5277058;28;20107;-78
2022/03/14 09:16:20;;;;;;;18.80;10.10;;;;;;;9.67;53.69;101372.69;5283461;28;20020;-78
2022/03/14 09:18:52;;;;;;;14.20;7.65;;;;;;;9.67;54.13;101364.84;5284147;28;20796;-78
2022/03/14 09:21:24;;;;;;;17.17;7.63;;;;;;;9.74;54.65;101373.41;5283838;28;20106;-78
2022/03/14 09:23:54;;;;;;;12.85;8.05;;;;;;;9.59;55.07;101374.59;5281216;28;20019;-78
2022/03/14 09:26:25;;;;;;;16.08;8.73;;;;;;;9.51;55.38;101381.69;5283567;28;20028;-78
2022/03/14 09:28:55;;;;;;;14.67;8.00;;;;;;;9.36;55.77;101388.94;5282677;28;20031;-78
2022/03/14 09:31:25;;;;;;;15.82;8.05;;;;;;;9.54;56.00;101392.09;5260504;28;20269;-78
2022/03/14 09:33:56;;;;;;;15.65;8.10;;;;;;;9.20;56.55;101405.72;5274372;28;20106;-78
2022/03/14 09:36:27;;;;;;;21.02;11.05;;;;;;;9.37;57.04;101395.88;5271304;28;20020;-78
2022/03/14 09:38:58;;;;;;;34.42;16.98;;;;;;;9.18;57.84;101402.28;5263726;28;20039;-78
2022/03/14 09:41:29;;;;;;;22.23;11.10;;;;;;;9.23;57.66;101403.06;5274017;28;20496;-78
2022/03/14 09:44:01;;;;;;;20.80;9.10;;;;;;;9.39;57.63;101408.00;5281096;28;20104;-78
2022/03/14 09:46:36;;;;;;;15.85;8.02;;;;;;;9.41;57.61;101411.44;5283137;28;20477;-78
2022/03/14 09:49:09;;;;;;;13.63;7.80;;;;;;;9.47;58.21;101419.16;5287119;28;20031;-78
2022/03/14 09:51:41;;;;;;;14.35;7.90;;;;;;;9.39;58.27;101423.66;5286942;28;20102;-78
2022/03/14 09:54:11;;;;;;;12.25;7.72;;;;;;;9.30;58.64;101423.81;5284273;28;20032;-78
2022/03/14 09:56:42;;;;;;;14.68;7.55;;;;;;;9.67;59.72;101426.66;5287270;28;20074;-78
2022/03/14 09:59:12;;;;;;;14.02;7.70;;;;;;;9.75;59.80;101432.56;5286458;28;20027;-78
2022/03/14 10:01:43;;;;;;;14.07;7.90;;;;;;;9.69;59.85;101433.53;5277423;28;20538;-78
2022/03/14 10:04:13;;;;;;;11.80;7.13;;;;;;;9.88;59.52;101439.28;5286669;28;20023;-78
2022/03/14 10:06:44;;;;;;;12.82;7.20;;;;;;;9.98;59.77;101451.28;5285903;28;20138;-78
2022/03/14 10:09:14;;;;;;;12.50;7.68;;;;;;;10.32;59.20;101447.16;5282212;28;20035;-78
2022/03/14 10:11:44;;;;;;;15.40;6.93;;;;;;;10.34;58.62;101450.59;5278161;28;20024;-78
2022/03/14 10:14:19;;;;;;;14.60;7.50;;;;;;;10.51;59.66;101459.78;5284962;28;20499;-78
2022/03/14 10:16:54;;;;;;;15.73;7.35;;;;;;;10.57;60.48;101456.19;5287358;28;20020;-78
2022/03/14 10:19:34;;;;;;;15.00;7.93;;;;;;;10.49;60.80;101458.97;5287093;28;20024;-78
2022/03/14 10:22:15;;;;;;;15.85;7.50;;;;;;;10.41;61.72;101465.22;5280495;28;20024;-78
2022/03/14 10:24:46;;;;;;;14.07;7.60;;;;;;;10.34;61.81;101466.25;5286721;28;20565;-78
2022/03/14 10:27:17;;;;;;;14.73;7.18;;;;;;;10.49;62.72;101471.19;5286563;28;20079;-78
2022/03/14 10:29:49;;;;;;;15.65;7.47;;;;;;;10.62;63.05;101467.38;5265488;28;20043;-78
2022/03/14 10:32:33;;;;;;;14.05;7.55;;;;;;;10.71;63.91;101483.75;5267130;28;20216;-78
2022/03/14 10:35:05;;;;;;;13.10;7.38;;;;;;;10.61;63.67;101477.00;5267023;28;20062;-78
2022/03/14 10:37:36;;;;;;;14.13;7.13;;;;;;;10.66;64.14;101496.06;5273465;28;20035;-78
2022/03/14 10:40:08;;;;;;;12.65;6.78;;;;;;;10.68;65.12;101496.03;5268394;28;20028;-78
2022/03/14 10:42:45;;;;;;;12.05;7.13;;;;;;;10.88;65.42;101509.53;5272550;28;20028;-78
2022/03/14 10:45:19;;;;;;;13.05;7.38;;;;;;;10.57;64.11;101505.84;5267307;28;20035;-78
2022/03/14 10:47:56;;;;;;;13.18;7.40;;;;;;;10.48;63.43;101519.13;5288209;28;20026;-78
2022/03/14 10:50:29;;;;;;;11.80;7.35;;;;;;;10.40;63.88;101518.41;5283026;28;20023;-78
2022/03/14 10:53:20;;;;;;;12.75;6.95;;;;;;;10.38;63.74;101522.78;5278171;28;20053;-78
2022/03/14 10:55:57;;;;;;;12.02;7.18;;;;;;;10.55;63.95;101515.47;5288140;28;20262;-78
2022/03/14 10:58:38;;;;;;;12.77;7.32;;;;;;;10.53;64.32;101517.25;5279219;28;20019;-78
2022/03/14 11:01:11;;;;;;;12.77;7.32;;;;;;;10.42;65.83;101511.38;5279100;28;20461;-78
2022/03/14 11:03:43;;;;;;;13.13;7.70;;;;;;;10.64;66.96;101510.91;5287070;28;20091;-78
2022/03/14 11:06:17;;;;;;;14.80;7.60;;;;;;;10.85;67.30;101518.31;5269674;28;20020;-78
2022/03/14 11:08:50;;;;;;;14.73;7.88;;;;;;;11.18;67.28;101510.56;5267551;28;20686;-78
2022/03/14 11:11:22;;;;;;;13.60;7.90;;;;;;;11.33;68.12;101512.84;5271960;28;20030;-78
2022/03/14 11:13:55;;;;;;;15.40;8.60;;;;;;;11.66;68.73;101506.81;5284041;28;20509;-78
2022/03/14 11:16:29;;;;;;;12.38;7.68;;;;;;;11.90;69.26;101510.53;5287256;28;20078;-78
2022/03/14 11:19:05;;;;;;;15.05;8.38;;;;;;;11.63;70.03;101516.50;5282822;28;20059;-78
2022/03/14 11:21:36;;;;;;;;;;;;;;;11.89;69.26;101512.31;5284853;28;20142;-78
2022/03/14 11:24:07;;;;;;;12.43;7.85;;;;;;;11.84;71.32;101515.94;5286504;28;20018;-78
2022/03/14 11:26:40;;;;;;;12.13;7.43;;;;;;;11.53;72.89;101509.72;5277803;28;20031;-78
2022/03/14 11:29:12;;;;;;;12.80;7.47;;;;;;;11.43;72.88;101516.09;5286749;28;20073;-78
2022/03/14 11:31:47;;;;;;;13.60;7.95;;;;;;;11.53;73.64;101517.56;5286445;28;20042;-78
2022/03/14 11:34:17;;;;;;;13.73;7.80;;;;;;;11.32;74.21;101520.72;5286868;28;20309;-78
2022/03/14 11:36:48;;;;;;;10.68;7.53;;;;;;;11.44;75.20;101523.06;5286843;28;20059;-78
2022/03/14 11:39:19;;;;;;;10.93;7.40;;;;;;;11.33;75.63;101522.44;5283698;28;20076;-78
2022/03/14 11:41:49;;;;;;;12.80;7.90;;;;;;;11.34;74.40;101529.38;5278364;28;20023;-78
2022/03/14 11:44:20;;;;;;;13.77;7.80;;;;;;;11.20;75.82;101531.44;5284773;28;20026;-78